CSN7556 RJOO-ZBAD
Flight info
| Callsign | CSN7556 |
|---|---|
| Flight time | 2h 53m |
| Altitude | 34100 |
| Route | TOZAN Y38 SAPRA G585 SEL G597 AGAVO A591 IKEKA W4 HCH W200 DOVIV W55 DUMAP |
| Aircraft | A320/M-SDE3FGHIRWY/LB1 |
Departure
| Time | 2026-05-07 05:47 |
|---|---|
| Airport | Osaka Itami International Airport (RJOO) |
Arrival
| Time | 2026-05-07 08:40 |
|---|---|
| Airport | Beijing Daxing International Airport (ZBAD) |
| Time | Latitude | Longitude | Altitude | Speed | Heading |
|---|---|---|---|---|---|
| 2026-05-07 05:46 | 34.72004 | 135.46291 | 3161 ft | 205 kts | 211° |
| 2026-05-07 05:47 | 34.70871 | 135.45247 | 3777 ft | 204 kts | 223° |
| 2026-05-07 05:47 | 34.69809 | 135.44090 | 4394 ft | 206 kts | 222° |
| 2026-05-07 05:47 | 34.68741 | 135.42934 | 5020 ft | 205 kts | 222° |
| 2026-05-07 05:47 | 34.67669 | 135.41778 | 5564 ft | 210 kts | 222° |
| 2026-05-07 05:48 | 34.66530 | 135.40547 | 5905 ft | 231 kts | 223° |
| 2026-05-07 05:48 | 34.65445 | 135.38983 | 6316 ft | 254 kts | 241° |
| 2026-05-07 05:48 | 34.64855 | 135.36914 | 7022 ft | 266 kts | 259° |
| 2026-05-07 05:48 | 34.64819 | 135.34652 | 7868 ft | 272 kts | 276° |
| 2026-05-07 05:49 | 34.65224 | 135.32385 | 8750 ft | 276 kts | 280° |
| 2026-05-07 05:49 | 34.65655 | 135.30100 | 9657 ft | 279 kts | 280° |
| 2026-05-07 05:49 | 34.66087 | 135.27780 | 10364 ft | 289 kts | 279° |
| 2026-05-07 05:49 | 34.66544 | 135.25308 | 10654 ft | 312 kts | 280° |
| 2026-05-07 05:50 | 34.67035 | 135.22641 | 10885 ft | 335 kts | 280° |
| 2026-05-07 05:50 | 34.67610 | 135.19833 | 11349 ft | 348 kts | 286° |
| 2026-05-07 05:50 | 34.68635 | 135.17140 | 12009 ft | 357 kts | 298° |
| 2026-05-07 05:50 | 34.70165 | 135.14728 | 12711 ft | 365 kts | 311° |
| 2026-05-07 05:51 | 34.72016 | 135.12586 | 13411 ft | 369 kts | 314° |
| 2026-05-07 05:51 | 34.73890 | 135.10434 | 14074 ft | 372 kts | 313° |
| 2026-05-07 05:51 | 34.75774 | 135.08262 | 14673 ft | 375 kts | 313° |
| 2026-05-07 05:51 | 34.77670 | 135.06071 | 15287 ft | 377 kts | 313° |
| 2026-05-07 05:52 | 34.79578 | 135.03865 | 15867 ft | 380 kts | 313° |
| 2026-05-07 05:52 | 34.81501 | 135.01638 | 16465 ft | 383 kts | 313° |
| 2026-05-07 05:52 | 34.83434 | 134.99399 | 17042 ft | 385 kts | 313° |
| 2026-05-07 05:52 | 34.85382 | 134.97139 | 17626 ft | 388 kts | 312° |
| 2026-05-07 05:53 | 34.87338 | 134.94868 | 18216 ft | 390 kts | 312° |
| 2026-05-07 05:53 | 34.89310 | 134.92578 | 18707 ft | 393 kts | 312° |
| 2026-05-07 05:53 | 34.91293 | 134.90278 | 19196 ft | 395 kts | 312° |
| 2026-05-07 05:53 | 34.93286 | 134.87968 | 19686 ft | 398 kts | 313° |
| 2026-05-07 05:54 | 34.95272 | 134.85660 | 20161 ft | 400 kts | 312° |
| 2026-05-07 05:54 | 34.97290 | 134.83310 | 20629 ft | 403 kts | 312° |
| 2026-05-07 05:54 | 34.99322 | 134.80943 | 21123 ft | 405 kts | 312° |
| 2026-05-07 05:54 | 35.01362 | 134.78565 | 21616 ft | 407 kts | 312° |
| 2026-05-07 05:55 | 35.03425 | 134.76165 | 22075 ft | 410 kts | 312° |
| 2026-05-07 05:55 | 35.05494 | 134.73756 | 22541 ft | 412 kts | 312° |
| 2026-05-07 05:55 | 35.07601 | 134.71298 | 22995 ft | 415 kts | 312° |
| 2026-05-07 05:55 | 35.09663 | 134.68889 | 23430 ft | 417 kts | 312° |
| 2026-05-07 05:56 | 35.11766 | 134.66433 | 23783 ft | 420 kts | 312° |
| 2026-05-07 05:56 | 35.13887 | 134.63956 | 24149 ft | 423 kts | 312° |
| 2026-05-07 05:56 | 35.16018 | 134.61465 | 24511 ft | 425 kts | 312° |
| 2026-05-07 05:56 | 35.18160 | 134.58956 | 24850 ft | 428 kts | 311° |
| 2026-05-07 05:57 | 35.20312 | 134.56432 | 25178 ft | 430 kts | 311° |
| 2026-05-07 05:57 | 35.22477 | 134.53889 | 25525 ft | 433 kts | 311° |
| 2026-05-07 05:57 | 35.24585 | 134.51262 | 25850 ft | 432 kts | 305° |
| 2026-05-07 05:57 | 35.26316 | 134.48276 | 26194 ft | 429 kts | 296° |
| 2026-05-07 05:58 | 35.27594 | 134.44993 | 26560 ft | 427 kts | 287° |
| 2026-05-07 05:58 | 35.28406 | 134.41514 | 26910 ft | 425 kts | 279° |
| 2026-05-07 05:58 | 35.29066 | 134.37982 | 27231 ft | 427 kts | 279° |
| 2026-05-07 05:58 | 35.29731 | 134.34434 | 27559 ft | 429 kts | 279° |
| 2026-05-07 05:59 | 35.30398 | 134.30867 | 27884 ft | 431 kts | 279° |
| 2026-05-07 05:59 | 35.31066 | 134.27284 | 28213 ft | 433 kts | 279° |
| 2026-05-07 05:59 | 35.31738 | 134.23682 | 28536 ft | 435 kts | 279° |
| 2026-05-07 05:59 | 35.32410 | 134.20058 | 28818 ft | 437 kts | 279° |
| 2026-05-07 06:00 | 35.33086 | 134.16418 | 29091 ft | 440 kts | 279° |
| 2026-05-07 06:00 | 35.33766 | 134.12763 | 29439 ft | 440 kts | 279° |
| 2026-05-07 06:00 | 35.34456 | 134.09119 | 29910 ft | 439 kts | 279° |
| 2026-05-07 06:00 | 35.35154 | 134.05485 | 30296 ft | 438 kts | 279° |
| 2026-05-07 06:01 | 35.35855 | 134.01862 | 30667 ft | 437 kts | 280° |
| 2026-05-07 06:01 | 35.36555 | 133.98245 | 30977 ft | 436 kts | 280° |
| 2026-05-07 06:01 | 35.37250 | 133.94630 | 31346 ft | 435 kts | 280° |
| 2026-05-07 06:01 | 35.37938 | 133.91029 | 31721 ft | 434 kts | 280° |
| 2026-05-07 06:02 | 35.38621 | 133.87437 | 32098 ft | 432 kts | 280° |
| 2026-05-07 06:02 | 35.39298 | 133.83856 | 32470 ft | 431 kts | 280° |
| 2026-05-07 06:02 | 35.39742 | 133.81494 | 32727 ft | 430 kts | 280° |
| 2026-05-07 06:02 | 35.40635 | 133.76731 | 33263 ft | 427 kts | 280° |
| 2026-05-07 06:03 | 35.41298 | 133.73188 | 33639 ft | 426 kts | 280° |
| 2026-05-07 06:03 | 35.41961 | 133.69657 | 33960 ft | 425 kts | 280° |
| 2026-05-07 06:03 | 35.42399 | 133.67318 | 34017 ft | 425 kts | 280° |
| 2026-05-07 06:04 | 35.43716 | 133.60268 | 34039 ft | 424 kts | 279° |
| 2026-05-07 06:04 | 35.45031 | 133.53218 | 34033 ft | 424 kts | 279° |
| 2026-05-07 06:05 | 35.46349 | 133.46175 | 34029 ft | 424 kts | 279° |
| 2026-05-07 06:05 | 35.47666 | 133.39124 | 34024 ft | 424 kts | 279° |
| 2026-05-07 06:06 | 35.48964 | 133.32059 | 34016 ft | 425 kts | 279° |
| 2026-05-07 06:06 | 35.50257 | 133.24990 | 34006 ft | 425 kts | 279° |
| 2026-05-07 06:07 | 35.51556 | 133.17919 | 34016 ft | 425 kts | 279° |
| 2026-05-07 06:07 | 35.52853 | 133.10830 | 34020 ft | 426 kts | 279° |
| 2026-05-07 06:08 | 35.53969 | 133.03706 | 34023 ft | 425 kts | 276° |
| 2026-05-07 06:08 | 35.54807 | 132.96537 | 34041 ft | 424 kts | 274° |
| 2026-05-07 06:09 | 35.55626 | 132.89373 | 34042 ft | 423 kts | 275° |
| 2026-05-07 06:09 | 35.56494 | 132.82221 | 34039 ft | 423 kts | 275° |
| 2026-05-07 06:10 | 35.57385 | 132.75081 | 34037 ft | 423 kts | 275° |
| 2026-05-07 06:10 | 35.58265 | 132.67986 | 34014 ft | 423 kts | 275° |
| 2026-05-07 06:11 | 35.59195 | 132.60847 | 34032 ft | 424 kts | 276° |
| 2026-05-07 06:11 | 35.60152 | 132.53699 | 34039 ft | 424 kts | 276° |
| 2026-05-07 06:12 | 35.61087 | 132.46549 | 34042 ft | 424 kts | 275° |
| 2026-05-07 06:12 | 35.61963 | 132.39752 | 34055 ft | 424 kts | 276° |
| 2026-05-07 06:13 | 35.62888 | 132.32644 | 34034 ft | 420 kts | 276° |
| 2026-05-07 06:13 | 35.63798 | 132.25545 | 34026 ft | 421 kts | 276° |
| 2026-05-07 06:14 | 35.64703 | 132.18434 | 34046 ft | 421 kts | 276° |
| 2026-05-07 06:14 | 35.65603 | 132.11317 | 34040 ft | 421 kts | 276° |
| 2026-05-07 06:15 | 35.66508 | 132.04194 | 34024 ft | 422 kts | 276° |
| 2026-05-07 06:15 | 35.67411 | 131.97068 | 34028 ft | 422 kts | 276° |
| 2026-05-07 06:16 | 35.68303 | 131.89935 | 34031 ft | 422 kts | 276° |
| 2026-05-07 06:16 | 35.69190 | 131.82793 | 34030 ft | 422 kts | 276° |
| 2026-05-07 06:17 | 35.70076 | 131.75650 | 34043 ft | 423 kts | 276° |
| 2026-05-07 06:17 | 35.70953 | 131.68505 | 34040 ft | 423 kts | 276° |
| 2026-05-07 06:18 | 35.71820 | 131.61397 | 34038 ft | 423 kts | 276° |
| 2026-05-07 06:18 | 35.72699 | 131.54244 | 34053 ft | 423 kts | 275° |
| 2026-05-07 06:19 | 35.73571 | 131.47098 | 34048 ft | 422 kts | 275° |
| 2026-05-07 06:19 | 35.74429 | 131.39947 | 34033 ft | 422 kts | 276° |
| 2026-05-07 06:20 | 35.75292 | 131.32800 | 34043 ft | 422 kts | 275° |
| 2026-05-07 06:20 | 35.76153 | 131.25657 | 34044 ft | 421 kts | 275° |
| 2026-05-07 06:21 | 35.77004 | 131.18521 | 34045 ft | 421 kts | 275° |
| 2026-05-07 06:21 | 35.77846 | 131.11393 | 34047 ft | 420 kts | 275° |
| 2026-05-07 06:22 | 35.78680 | 131.04278 | 34041 ft | 419 kts | 275° |
| 2026-05-07 06:22 | 35.79926 | 130.93632 | 34036 ft | 418 kts | 275° |
| 2026-05-07 06:23 | 35.80750 | 130.86551 | 34049 ft | 417 kts | 275° |
| 2026-05-07 06:23 | 35.81566 | 130.79493 | 34029 ft | 416 kts | 275° |
| 2026-05-07 06:24 | 35.82378 | 130.72444 | 34020 ft | 415 kts | 275° |
| 2026-05-07 06:24 | 35.83236 | 130.65406 | 34022 ft | 416 kts | 276° |
| 2026-05-07 06:25 | 35.84155 | 130.58357 | 34019 ft | 416 kts | 276° |
| 2026-05-07 06:25 | 35.85074 | 130.51317 | 34016 ft | 416 kts | 276° |
| 2026-05-07 06:26 | 35.85969 | 130.44272 | 34030 ft | 416 kts | 275° |
| 2026-05-07 06:26 | 35.86841 | 130.37241 | 34029 ft | 414 kts | 275° |
| 2026-05-07 06:27 | 35.87710 | 130.30229 | 34026 ft | 414 kts | 275° |
| 2026-05-07 06:27 | 35.88580 | 130.23217 | 34028 ft | 413 kts | 275° |
| 2026-05-07 06:28 | 35.89447 | 130.16217 | 34020 ft | 412 kts | 275° |
| 2026-05-07 06:28 | 35.90310 | 130.09229 | 33988 ft | 412 kts | 275° |
| 2026-05-07 06:29 | 35.91164 | 130.02240 | 33992 ft | 412 kts | 275° |
| 2026-05-07 06:29 | 35.92014 | 129.95245 | 33992 ft | 412 kts | 275° |
| 2026-05-07 06:30 | 35.92859 | 129.88257 | 33987 ft | 412 kts | 275° |
| 2026-05-07 06:30 | 35.93704 | 129.81265 | 33984 ft | 412 kts | 275° |
| 2026-05-07 06:31 | 35.94542 | 129.74279 | 33995 ft | 411 kts | 275° |
| 2026-05-07 06:31 | 35.95375 | 129.67311 | 33991 ft | 410 kts | 275° |
| 2026-05-07 06:32 | 35.96203 | 129.60395 | 33984 ft | 410 kts | 275° |
| 2026-05-07 06:32 | 35.97018 | 129.53438 | 33995 ft | 409 kts | 275° |
| 2026-05-07 06:33 | 35.98487 | 129.46641 | 33991 ft | 416 kts | 290° |
| 2026-05-07 06:33 | 36.01682 | 129.40593 | 33982 ft | 423 kts | 300° |
| 2026-05-07 06:34 | 36.05110 | 129.34692 | 33995 ft | 423 kts | 299° |
| 2026-05-07 06:34 | 36.08521 | 129.28787 | 33990 ft | 421 kts | 299° |
| 2026-05-07 06:35 | 36.11915 | 129.22885 | 33988 ft | 421 kts | 299° |
| 2026-05-07 06:35 | 36.15302 | 129.16989 | 33987 ft | 420 kts | 299° |
| 2026-05-07 06:36 | 36.18687 | 129.11105 | 33988 ft | 419 kts | 299° |
| 2026-05-07 06:36 | 36.22055 | 129.05227 | 33979 ft | 418 kts | 299° |
| 2026-05-07 06:37 | 36.25414 | 128.99346 | 33973 ft | 418 kts | 298° |
| 2026-05-07 06:37 | 36.28766 | 128.93465 | 33970 ft | 418 kts | 298° |
| 2026-05-07 06:38 | 36.32112 | 128.87585 | 33986 ft | 417 kts | 298° |
| 2026-05-07 06:38 | 36.35459 | 128.81713 | 33982 ft | 416 kts | 298° |
| 2026-05-07 06:39 | 36.38797 | 128.75845 | 33978 ft | 416 kts | 298° |
| 2026-05-07 06:39 | 36.42120 | 128.69970 | 33974 ft | 416 kts | 298° |
| 2026-05-07 06:40 | 36.45445 | 128.64099 | 33991 ft | 415 kts | 298° |
| 2026-05-07 06:40 | 36.48764 | 128.58234 | 33986 ft | 415 kts | 298° |
| 2026-05-07 06:41 | 36.52080 | 128.52365 | 33982 ft | 414 kts | 298° |
| 2026-05-07 06:41 | 36.55380 | 128.46502 | 34007 ft | 413 kts | 297° |
| 2026-05-07 06:42 | 36.58667 | 128.40647 | 34001 ft | 412 kts | 297° |
| 2026-05-07 06:42 | 36.61947 | 128.34801 | 33994 ft | 412 kts | 297° |
| 2026-05-07 06:43 | 36.65228 | 128.28961 | 33988 ft | 412 kts | 297° |
| 2026-05-07 06:43 | 36.68543 | 128.23144 | 33982 ft | 412 kts | 298° |
| 2026-05-07 06:44 | 36.71862 | 128.17343 | 34008 ft | 411 kts | 297° |
| 2026-05-07 06:44 | 36.75151 | 128.11577 | 34002 ft | 409 kts | 297° |
| 2026-05-07 06:45 | 36.78427 | 128.05797 | 34004 ft | 408 kts | 297° |
| 2026-05-07 06:45 | 36.81689 | 128.00030 | 33992 ft | 407 kts | 297° |
| 2026-05-07 06:46 | 36.84942 | 127.94258 | 34004 ft | 406 kts | 297° |
| 2026-05-07 06:46 | 36.88187 | 127.88492 | 34003 ft | 405 kts | 297° |
| 2026-05-07 06:47 | 36.91423 | 127.82743 | 33997 ft | 404 kts | 297° |
| 2026-05-07 06:47 | 36.94659 | 127.76997 | 33991 ft | 404 kts | 297° |
| 2026-05-07 06:48 | 36.97891 | 127.71248 | 34005 ft | 404 kts | 297° |
| 2026-05-07 06:48 | 37.01114 | 127.65501 | 33996 ft | 403 kts | 296° |
| 2026-05-07 06:49 | 37.04334 | 127.59750 | 33997 ft | 403 kts | 296° |
| 2026-05-07 06:49 | 37.07547 | 127.54001 | 33994 ft | 403 kts | 296° |
| 2026-05-07 06:50 | 37.10757 | 127.48242 | 34006 ft | 403 kts | 296° |
| 2026-05-07 06:50 | 37.13961 | 127.42480 | 34033 ft | 403 kts | 296° |
| 2026-05-07 06:51 | 37.16624 | 127.37695 | 34027 ft | 403 kts | 296° |
| 2026-05-07 06:51 | 37.19822 | 127.31928 | 34025 ft | 403 kts | 296° |
| 2026-05-07 06:52 | 37.23019 | 127.26158 | 34024 ft | 403 kts | 296° |
| 2026-05-07 06:52 | 37.26218 | 127.20383 | 34057 ft | 403 kts | 295° |
| 2026-05-07 06:53 | 37.29404 | 127.14607 | 34059 ft | 402 kts | 295° |
| 2026-05-07 06:53 | 37.32582 | 127.08832 | 34052 ft | 401 kts | 295° |
| 2026-05-07 06:54 | 37.35753 | 127.03065 | 34038 ft | 401 kts | 295° |
| 2026-05-07 06:54 | 37.38926 | 126.97285 | 34069 ft | 401 kts | 294° |
| 2026-05-07 06:55 | 37.40241 | 126.94262 | 34069 ft | 389 kts | 284° |
| 2026-05-07 06:55 | 37.41045 | 126.91066 | 34064 ft | 380 kts | 275° |
| 2026-05-07 06:55 | 37.41342 | 126.84584 | 34040 ft | 372 kts | 266° |
| 2026-05-07 06:56 | 37.41313 | 126.78078 | 34030 ft | 372 kts | 266° |
| 2026-05-07 06:56 | 37.41283 | 126.71577 | 34057 ft | 372 kts | 265° |
| 2026-05-07 06:57 | 37.41252 | 126.65072 | 34050 ft | 371 kts | 265° |
| 2026-05-07 06:57 | 37.41215 | 126.58587 | 34016 ft | 371 kts | 265° |
| 2026-05-07 06:58 | 37.41174 | 126.52098 | 34034 ft | 371 kts | 265° |
| 2026-05-07 06:58 | 37.41135 | 126.45614 | 34064 ft | 371 kts | 265° |
| 2026-05-07 06:59 | 37.41091 | 126.39133 | 34062 ft | 370 kts | 265° |
| 2026-05-07 06:59 | 37.41042 | 126.32663 | 34057 ft | 370 kts | 265° |
| 2026-05-07 07:00 | 37.40994 | 126.26202 | 34048 ft | 369 kts | 265° |
| 2026-05-07 07:00 | 37.40939 | 126.19753 | 34063 ft | 369 kts | 265° |
| 2026-05-07 07:01 | 37.40880 | 126.13309 | 34055 ft | 368 kts | 265° |
| 2026-05-07 07:01 | 37.40821 | 126.06871 | 34001 ft | 368 kts | 265° |
| 2026-05-07 07:02 | 37.40754 | 126.00426 | 33999 ft | 369 kts | 265° |
| 2026-05-07 07:02 | 37.40691 | 125.93975 | 34000 ft | 369 kts | 265° |
| 2026-05-07 07:03 | 37.40620 | 125.87518 | 34008 ft | 369 kts | 265° |
| 2026-05-07 07:03 | 37.40539 | 125.81073 | 34004 ft | 369 kts | 265° |
| 2026-05-07 07:04 | 37.40454 | 125.74617 | 34040 ft | 369 kts | 265° |
| 2026-05-07 07:04 | 37.40370 | 125.68167 | 34036 ft | 369 kts | 265° |
| 2026-05-07 07:05 | 37.40281 | 125.61716 | 34034 ft | 368 kts | 265° |
| 2026-05-07 07:05 | 37.40197 | 125.55328 | 34033 ft | 368 kts | 265° |
| 2026-05-07 07:06 | 37.40108 | 125.48899 | 34043 ft | 367 kts | 265° |
| 2026-05-07 07:06 | 37.40010 | 125.42474 | 34049 ft | 367 kts | 265° |
| 2026-05-07 07:07 | 37.39912 | 125.36068 | 34038 ft | 366 kts | 265° |
| 2026-05-07 07:07 | 37.39809 | 125.29662 | 34026 ft | 366 kts | 265° |
| 2026-05-07 07:08 | 37.39694 | 125.23261 | 34067 ft | 366 kts | 265° |
| 2026-05-07 07:08 | 37.39588 | 125.16865 | 34056 ft | 365 kts | 265° |
| 2026-05-07 07:09 | 37.39482 | 125.10486 | 34047 ft | 365 kts | 265° |
| 2026-05-07 07:09 | 37.39366 | 125.04107 | 34043 ft | 365 kts | 265° |
| 2026-05-07 07:10 | 37.39246 | 124.97735 | 34026 ft | 365 kts | 265° |
| 2026-05-07 07:10 | 37.39124 | 124.91366 | 34023 ft | 364 kts | 265° |
| 2026-05-07 07:11 | 37.38800 | 124.85035 | 34021 ft | 361 kts | 256° |
| 2026-05-07 07:11 | 37.36833 | 124.79256 | 34024 ft | 363 kts | 241° |
| 2026-05-07 07:12 | 37.34151 | 124.73868 | 34019 ft | 364 kts | 241° |
| 2026-05-07 07:12 | 37.31478 | 124.68469 | 34053 ft | 364 kts | 241° |
| 2026-05-07 07:13 | 37.28800 | 124.63072 | 34017 ft | 364 kts | 241° |
| 2026-05-07 07:13 | 37.26131 | 124.57709 | 34024 ft | 365 kts | 241° |
| 2026-05-07 07:14 | 37.23440 | 124.52307 | 34033 ft | 365 kts | 241° |
| 2026-05-07 07:14 | 37.20739 | 124.46906 | 34079 ft | 365 kts | 241° |
| 2026-05-07 07:15 | 37.18424 | 124.41287 | 34023 ft | 362 kts | 253° |
| 2026-05-07 07:15 | 37.17804 | 124.35027 | 34029 ft | 364 kts | 265° |
| 2026-05-07 07:16 | 37.17615 | 124.28680 | 34039 ft | 365 kts | 265° |
| 2026-05-07 07:16 | 37.17407 | 124.22311 | 34044 ft | 365 kts | 265° |
| 2026-05-07 07:17 | 37.17192 | 124.15944 | 34076 ft | 365 kts | 265° |
| 2026-05-07 07:17 | 37.16979 | 124.09589 | 34075 ft | 364 kts | 265° |
| 2026-05-07 07:18 | 37.16738 | 124.03245 | 34075 ft | 363 kts | 262° |
| 2026-05-07 07:18 | 37.15243 | 123.97264 | 34074 ft | 363 kts | 243° |
| 2026-05-07 07:19 | 37.12506 | 123.91918 | 34067 ft | 364 kts | 240° |
| 2026-05-07 07:19 | 37.09744 | 123.86590 | 34067 ft | 365 kts | 241° |
| 2026-05-07 07:20 | 37.06986 | 123.81255 | 34069 ft | 365 kts | 241° |
| 2026-05-07 07:20 | 37.04232 | 123.75920 | 34070 ft | 365 kts | 241° |
| 2026-05-07 07:21 | 37.01471 | 123.70589 | 34030 ft | 366 kts | 241° |
| 2026-05-07 07:21 | 36.98694 | 123.65225 | 34078 ft | 367 kts | 241° |
| 2026-05-07 07:22 | 36.95912 | 123.59869 | 34080 ft | 367 kts | 241° |
| 2026-05-07 07:22 | 36.93128 | 123.54528 | 34079 ft | 367 kts | 241° |
| 2026-05-07 07:23 | 36.90339 | 123.49187 | 34079 ft | 367 kts | 241° |
| 2026-05-07 07:23 | 36.87545 | 123.43852 | 34056 ft | 367 kts | 241° |
| 2026-05-07 07:24 | 36.84977 | 123.38373 | 34058 ft | 364 kts | 251° |
| 2026-05-07 07:24 | 36.84226 | 123.32179 | 34061 ft | 366 kts | 271° |
| 2026-05-07 07:25 | 36.86207 | 123.22834 | 34065 ft | 373 kts | 281° |
| 2026-05-07 07:26 | 36.87702 | 123.16620 | 34071 ft | 373 kts | 281° |
| 2026-05-07 07:26 | 36.89191 | 123.10412 | 34114 ft | 373 kts | 281° |
| 2026-05-07 07:27 | 36.90679 | 123.04211 | 34099 ft | 373 kts | 281° |
| 2026-05-07 07:27 | 36.92171 | 122.98012 | 34101 ft | 372 kts | 281° |
| 2026-05-07 07:28 | 36.93650 | 122.91820 | 34099 ft | 372 kts | 281° |
| 2026-05-07 07:28 | 36.95125 | 122.85629 | 34121 ft | 371 kts | 281° |
| 2026-05-07 07:29 | 36.96597 | 122.79455 | 34117 ft | 370 kts | 281° |
| 2026-05-07 07:29 | 36.98064 | 122.73284 | 34112 ft | 370 kts | 281° |
| 2026-05-07 07:30 | 36.99523 | 122.67122 | 34110 ft | 369 kts | 280° |
| 2026-05-07 07:30 | 37.00975 | 122.60966 | 34135 ft | 369 kts | 281° |
| 2026-05-07 07:31 | 37.02420 | 122.54814 | 34126 ft | 368 kts | 281° |
| 2026-05-07 07:31 | 37.03859 | 122.48676 | 34122 ft | 367 kts | 281° |
| 2026-05-07 07:32 | 37.05294 | 122.42550 | 34119 ft | 367 kts | 281° |
| 2026-05-07 07:32 | 37.06757 | 122.36424 | 34117 ft | 369 kts | 284° |
| 2026-05-07 07:33 | 37.09567 | 122.30894 | 34138 ft | 393 kts | 305° |
| 2026-05-07 07:33 | 37.13943 | 122.26643 | 34137 ft | 403 kts | 312° |
| 2026-05-07 07:34 | 37.17902 | 122.21967 | 34133 ft | 380 kts | 296° |
| 2026-05-07 07:34 | 37.19214 | 122.19159 | 34129 ft | 369 kts | 287° |
| 2026-05-07 07:34 | 37.20087 | 122.16174 | 34137 ft | 363 kts | 282° |
| 2026-05-07 07:35 | 37.21636 | 122.10147 | 34128 ft | 363 kts | 282° |
| 2026-05-07 07:35 | 37.23205 | 122.04123 | 34158 ft | 362 kts | 282° |
| 2026-05-07 07:36 | 37.24762 | 121.98124 | 34155 ft | 361 kts | 282° |
| 2026-05-07 07:36 | 37.26309 | 121.92130 | 34150 ft | 360 kts | 282° |
| 2026-05-07 07:37 | 37.27598 | 121.87118 | 34148 ft | 360 kts | 282° |
| 2026-05-07 07:37 | 37.29381 | 121.80177 | 34152 ft | 359 kts | 282° |
| 2026-05-07 07:38 | 37.30658 | 121.75204 | 34149 ft | 354 kts | 282° |
| 2026-05-07 07:38 | 37.32165 | 121.69327 | 34141 ft | 353 kts | 282° |
| 2026-05-07 07:39 | 37.33663 | 121.63446 | 34131 ft | 353 kts | 282° |
| 2026-05-07 07:39 | 37.35141 | 121.57604 | 34135 ft | 353 kts | 282° |
| 2026-05-07 07:40 | 37.36626 | 121.51721 | 34165 ft | 353 kts | 282° |
| 2026-05-07 07:40 | 37.38118 | 121.45849 | 34160 ft | 352 kts | 282° |
| 2026-05-07 07:41 | 37.39604 | 121.39990 | 34161 ft | 351 kts | 282° |
| 2026-05-07 07:41 | 37.41081 | 121.34146 | 34160 ft | 351 kts | 282° |
| 2026-05-07 07:42 | 37.42553 | 121.28300 | 34157 ft | 350 kts | 281° |
| 2026-05-07 07:42 | 37.44015 | 121.22459 | 34180 ft | 350 kts | 281° |
| 2026-05-07 07:43 | 37.45495 | 121.16643 | 34179 ft | 349 kts | 283° |
| 2026-05-07 07:43 | 37.47265 | 121.10929 | 34175 ft | 351 kts | 285° |
| 2026-05-07 07:44 | 37.49151 | 121.05268 | 34166 ft | 350 kts | 285° |
| 2026-05-07 07:44 | 37.50999 | 120.99605 | 34161 ft | 349 kts | 285° |
| 2026-05-07 07:45 | 37.52800 | 120.93925 | 34187 ft | 349 kts | 284° |
| 2026-05-07 07:45 | 37.54590 | 120.88244 | 34174 ft | 348 kts | 284° |
| 2026-05-07 07:46 | 37.56374 | 120.82580 | 34169 ft | 348 kts | 284° |
| 2026-05-07 07:46 | 37.58156 | 120.76917 | 34166 ft | 347 kts | 284° |
| 2026-05-07 07:47 | 37.59969 | 120.71273 | 34165 ft | 347 kts | 285° |
| 2026-05-07 07:47 | 37.61825 | 120.65686 | 34163 ft | 348 kts | 285° |
| 2026-05-07 07:48 | 37.63686 | 120.60056 | 34165 ft | 348 kts | 285° |
| 2026-05-07 07:48 | 37.65561 | 120.54424 | 34164 ft | 351 kts | 289° |
| 2026-05-07 07:49 | 37.67989 | 120.49020 | 34177 ft | 354 kts | 291° |
| 2026-05-07 07:49 | 37.70463 | 120.43632 | 34177 ft | 355 kts | 291° |
| 2026-05-07 07:50 | 37.72933 | 120.38234 | 34215 ft | 355 kts | 291° |
| 2026-05-07 07:50 | 37.75389 | 120.32834 | 34210 ft | 354 kts | 291° |
| 2026-05-07 07:51 | 37.77841 | 120.27434 | 34210 ft | 354 kts | 291° |
| 2026-05-07 07:51 | 37.80287 | 120.22040 | 34203 ft | 353 kts | 290° |
| 2026-05-07 07:52 | 37.82724 | 120.16641 | 34201 ft | 353 kts | 290° |
| 2026-05-07 07:52 | 37.85155 | 120.11252 | 34238 ft | 353 kts | 290° |
| 2026-05-07 07:53 | 37.87588 | 120.05866 | 34207 ft | 352 kts | 290° |
| 2026-05-07 07:53 | 37.90008 | 120.00489 | 34199 ft | 352 kts | 290° |
| 2026-05-07 07:54 | 37.92432 | 119.95108 | 34201 ft | 352 kts | 290° |
| 2026-05-07 07:54 | 37.94852 | 119.89724 | 34197 ft | 351 kts | 290° |
| 2026-05-07 07:55 | 37.97251 | 119.84379 | 34193 ft | 351 kts | 290° |
| 2026-05-07 07:55 | 37.99680 | 119.78950 | 34196 ft | 353 kts | 290° |
| 2026-05-07 07:56 | 38.02097 | 119.73532 | 34184 ft | 353 kts | 290° |
| 2026-05-07 07:56 | 38.04379 | 119.68406 | 34178 ft | 353 kts | 290° |
| 2026-05-07 07:57 | 38.06784 | 119.63003 | 34185 ft | 355 kts | 290° |
| 2026-05-07 07:57 | 38.09211 | 119.57542 | 34168 ft | 355 kts | 290° |
| 2026-05-07 07:57 | 38.10424 | 119.54807 | 34047 ft | 355 kts | 290° |
| 2026-05-07 07:58 | 38.11520 | 119.52019 | 33960 ft | 352 kts | 286° |
| 2026-05-07 07:58 | 38.12455 | 119.49132 | 33826 ft | 355 kts | 285° |
| 2026-05-07 07:58 | 38.13400 | 119.46220 | 33692 ft | 357 kts | 286° |
| 2026-05-07 07:58 | 38.14350 | 119.43308 | 33569 ft | 358 kts | 286° |
| 2026-05-07 07:59 | 38.15308 | 119.40379 | 33426 ft | 359 kts | 286° |
| 2026-05-07 07:59 | 38.16266 | 119.37452 | 33300 ft | 359 kts | 286° |
| 2026-05-07 07:59 | 38.17222 | 119.34520 | 33163 ft | 359 kts | 286° |
| 2026-05-07 07:59 | 38.18177 | 119.31589 | 33037 ft | 360 kts | 286° |
| 2026-05-07 08:00 | 38.19137 | 119.28641 | 32908 ft | 360 kts | 286° |
| 2026-05-07 08:00 | 38.20093 | 119.25695 | 32771 ft | 361 kts | 286° |
| 2026-05-07 08:00 | 38.21046 | 119.22742 | 32663 ft | 362 kts | 287° |
| 2026-05-07 08:00 | 38.22003 | 119.19770 | 32534 ft | 364 kts | 287° |
| 2026-05-07 08:01 | 38.22967 | 119.16785 | 32408 ft | 365 kts | 287° |
| 2026-05-07 08:01 | 38.23933 | 119.13796 | 32281 ft | 366 kts | 287° |
| 2026-05-07 08:01 | 38.24900 | 119.10801 | 32156 ft | 366 kts | 287° |
| 2026-05-07 08:01 | 38.25866 | 119.07806 | 32033 ft | 366 kts | 287° |
| 2026-05-07 08:02 | 38.26833 | 119.04806 | 31909 ft | 367 kts | 287° |
| 2026-05-07 08:02 | 38.27802 | 119.01798 | 31785 ft | 367 kts | 287° |
| 2026-05-07 08:02 | 38.28768 | 118.98794 | 31665 ft | 367 kts | 287° |
| 2026-05-07 08:02 | 38.29735 | 118.95779 | 31542 ft | 368 kts | 287° |
| 2026-05-07 08:03 | 38.30698 | 118.92761 | 31429 ft | 368 kts | 287° |
| 2026-05-07 08:03 | 38.31664 | 118.89741 | 31307 ft | 369 kts | 287° |
| 2026-05-07 08:03 | 38.32632 | 118.86715 | 31186 ft | 369 kts | 287° |
| 2026-05-07 08:03 | 38.33599 | 118.83690 | 31060 ft | 369 kts | 287° |
| 2026-05-07 08:04 | 38.34564 | 118.80662 | 30950 ft | 369 kts | 287° |
| 2026-05-07 08:04 | 38.35529 | 118.77628 | 30828 ft | 369 kts | 287° |
| 2026-05-07 08:04 | 38.36492 | 118.74598 | 30709 ft | 369 kts | 287° |
| 2026-05-07 08:04 | 38.37460 | 118.71564 | 30588 ft | 369 kts | 287° |
| 2026-05-07 08:05 | 38.38430 | 118.68534 | 30476 ft | 370 kts | 287° |
| 2026-05-07 08:05 | 38.39403 | 118.65500 | 30374 ft | 369 kts | 287° |
| 2026-05-07 08:05 | 38.40371 | 118.62474 | 30255 ft | 368 kts | 287° |
| 2026-05-07 08:05 | 38.41336 | 118.59451 | 30133 ft | 368 kts | 287° |
| 2026-05-07 08:06 | 38.42298 | 118.56431 | 29993 ft | 368 kts | 287° |
| 2026-05-07 08:06 | 38.43259 | 118.53401 | 29860 ft | 369 kts | 287° |
| 2026-05-07 08:06 | 38.44219 | 118.50367 | 29717 ft | 370 kts | 287° |
| 2026-05-07 08:06 | 38.45182 | 118.47326 | 29577 ft | 371 kts | 287° |
| 2026-05-07 08:07 | 38.46153 | 118.44270 | 29445 ft | 371 kts | 288° |
| 2026-05-07 08:07 | 38.47124 | 118.41211 | 29292 ft | 372 kts | 288° |
| 2026-05-07 08:07 | 38.48096 | 118.38144 | 29164 ft | 373 kts | 288° |
| 2026-05-07 08:07 | 38.49067 | 118.35066 | 29045 ft | 375 kts | 288° |
| 2026-05-07 08:08 | 38.50030 | 118.32004 | 28910 ft | 377 kts | 288° |
| 2026-05-07 08:08 | 38.51991 | 118.25773 | 28759 ft | 380 kts | 288° |
| 2026-05-07 08:08 | 38.52976 | 118.22645 | 28516 ft | 379 kts | 288° |
| 2026-05-07 08:09 | 38.53963 | 118.19510 | 28270 ft | 382 kts | 288° |
| 2026-05-07 08:09 | 38.54953 | 118.16355 | 28039 ft | 384 kts | 289° |
| 2026-05-07 08:09 | 38.55946 | 118.13181 | 27793 ft | 386 kts | 289° |
| 2026-05-07 08:09 | 38.56940 | 118.09999 | 27559 ft | 386 kts | 289° |
| 2026-05-07 08:10 | 38.57933 | 118.06812 | 27325 ft | 386 kts | 289° |
| 2026-05-07 08:10 | 38.58926 | 118.03622 | 27084 ft | 387 kts | 289° |
| 2026-05-07 08:10 | 38.59947 | 118.00432 | 26832 ft | 388 kts | 291° |
| 2026-05-07 08:10 | 38.61029 | 117.97271 | 26502 ft | 388 kts | 292° |
| 2026-05-07 08:11 | 38.62143 | 117.94132 | 26177 ft | 388 kts | 292° |
| 2026-05-07 08:11 | 38.63269 | 117.91002 | 25856 ft | 388 kts | 292° |
| 2026-05-07 08:11 | 38.64389 | 117.87879 | 25541 ft | 387 kts | 292° |
| 2026-05-07 08:11 | 38.65505 | 117.84750 | 25229 ft | 387 kts | 292° |
| 2026-05-07 08:12 | 38.66612 | 117.81608 | 24917 ft | 387 kts | 292° |
| 2026-05-07 08:12 | 38.67709 | 117.78469 | 24606 ft | 387 kts | 293° |
| 2026-05-07 08:12 | 38.68800 | 117.75327 | 24311 ft | 387 kts | 293° |
| 2026-05-07 08:12 | 38.69889 | 117.72177 | 24010 ft | 386 kts | 293° |
| 2026-05-07 08:13 | 38.70976 | 117.69034 | 23706 ft | 386 kts | 293° |
| 2026-05-07 08:13 | 38.72066 | 117.65887 | 23361 ft | 386 kts | 293° |
| 2026-05-07 08:13 | 38.73149 | 117.62750 | 23004 ft | 385 kts | 294° |
| 2026-05-07 08:13 | 38.74228 | 117.59622 | 22645 ft | 383 kts | 294° |
| 2026-05-07 08:14 | 38.75304 | 117.56510 | 22293 ft | 382 kts | 294° |
| 2026-05-07 08:14 | 38.76379 | 117.53407 | 21950 ft | 380 kts | 294° |
| 2026-05-07 08:14 | 38.77448 | 117.50317 | 21607 ft | 379 kts | 294° |
| 2026-05-07 08:14 | 38.78510 | 117.47239 | 21269 ft | 377 kts | 295° |
| 2026-05-07 08:15 | 38.79568 | 117.44168 | 20928 ft | 376 kts | 295° |
| 2026-05-07 08:15 | 38.80620 | 117.41106 | 20602 ft | 375 kts | 295° |
| 2026-05-07 08:15 | 38.81670 | 117.38053 | 20271 ft | 373 kts | 295° |
| 2026-05-07 08:15 | 38.82712 | 117.35018 | 19947 ft | 369 kts | 295° |
| 2026-05-07 08:16 | 38.83728 | 117.32055 | 19615 ft | 357 kts | 295° |
| 2026-05-07 08:16 | 38.84711 | 117.29182 | 19306 ft | 346 kts | 295° |
| 2026-05-07 08:16 | 38.85663 | 117.26393 | 18988 ft | 337 kts | 296° |
| 2026-05-07 08:16 | 38.86588 | 117.23679 | 18682 ft | 328 kts | 296° |
| 2026-05-07 08:17 | 38.87490 | 117.21026 | 18371 ft | 321 kts | 296° |
| 2026-05-07 08:17 | 38.88374 | 117.18427 | 18020 ft | 314 kts | 296° |
| 2026-05-07 08:17 | 38.89239 | 117.15887 | 17657 ft | 307 kts | 296° |
| 2026-05-07 08:17 | 38.90089 | 117.13399 | 17315 ft | 302 kts | 297° |
| 2026-05-07 08:18 | 38.90926 | 117.10950 | 16970 ft | 297 kts | 297° |
| 2026-05-07 08:18 | 38.91749 | 117.08540 | 16630 ft | 293 kts | 297° |
| 2026-05-07 08:18 | 38.92550 | 117.06189 | 16295 ft | 289 kts | 297° |
| 2026-05-07 08:18 | 38.93360 | 117.03805 | 15956 ft | 286 kts | 297° |
| 2026-05-07 08:19 | 38.94148 | 117.01471 | 15628 ft | 284 kts | 297° |
| 2026-05-07 08:19 | 38.94930 | 116.99156 | 15300 ft | 281 kts | 297° |
| 2026-05-07 08:19 | 38.95704 | 116.96860 | 14979 ft | 279 kts | 297° |
| 2026-05-07 08:19 | 38.96478 | 116.94575 | 14656 ft | 278 kts | 297° |
| 2026-05-07 08:20 | 38.97250 | 116.92302 | 14336 ft | 277 kts | 297° |
| 2026-05-07 08:20 | 38.98006 | 116.90066 | 14023 ft | 276 kts | 297° |
| 2026-05-07 08:20 | 38.98770 | 116.87808 | 13695 ft | 276 kts | 297° |
| 2026-05-07 08:20 | 38.99535 | 116.85543 | 13334 ft | 275 kts | 297° |
| 2026-05-07 08:21 | 39.00293 | 116.83295 | 12988 ft | 274 kts | 297° |
| 2026-05-07 08:21 | 39.01035 | 116.81086 | 12732 ft | 272 kts | 297° |
| 2026-05-07 08:21 | 39.01796 | 116.78822 | 12573 ft | 272 kts | 297° |
| 2026-05-07 08:21 | 39.02551 | 116.76594 | 12416 ft | 271 kts | 300° |
| 2026-05-07 08:22 | 39.03603 | 116.74635 | 12258 ft | 265 kts | 317° |
| 2026-05-07 08:22 | 39.05075 | 116.73304 | 12097 ft | 263 kts | 335° |
| 2026-05-07 08:22 | 39.06831 | 116.72684 | 11955 ft | 264 kts | 351° |
| 2026-05-07 08:22 | 39.08656 | 116.72420 | 11796 ft | 263 kts | 352° |
| 2026-05-07 08:23 | 39.10474 | 116.72150 | 11647 ft | 263 kts | 351° |
| 2026-05-07 08:23 | 39.12289 | 116.71876 | 11495 ft | 262 kts | 351° |
| 2026-05-07 08:23 | 39.14095 | 116.71600 | 11344 ft | 261 kts | 351° |
| 2026-05-07 08:23 | 39.15897 | 116.71325 | 11194 ft | 261 kts | 351° |
| 2026-05-07 08:24 | 39.17694 | 116.71052 | 11041 ft | 260 kts | 351° |
| 2026-05-07 08:24 | 39.18905 | 116.70868 | 10938 ft | 259 kts | 351° |
| 2026-05-07 08:24 | 39.20694 | 116.70597 | 10776 ft | 258 kts | 352° |
| 2026-05-07 08:24 | 39.22477 | 116.70326 | 10645 ft | 258 kts | 351° |
| 2026-05-07 08:25 | 39.24260 | 116.70055 | 10500 ft | 258 kts | 351° |
| 2026-05-07 08:25 | 39.26040 | 116.69786 | 10351 ft | 257 kts | 351° |
| 2026-05-07 08:25 | 39.27815 | 116.69516 | 10209 ft | 257 kts | 351° |
| 2026-05-07 08:25 | 39.29560 | 116.69248 | 10061 ft | 256 kts | 351° |
| 2026-05-07 08:26 | 39.32522 | 116.67017 | 9729 ft | 260 kts | 302° |
| 2026-05-07 08:26 | 39.32963 | 116.64733 | 9583 ft | 272 kts | 274° |
| 2026-05-07 08:26 | 39.32776 | 116.62291 | 9424 ft | 270 kts | 269° |
| 2026-05-07 08:27 | 39.32457 | 116.59971 | 9265 ft | 266 kts | 255° |
| 2026-05-07 08:27 | 39.31334 | 116.58083 | 9118 ft | 272 kts | 219° |
| 2026-05-07 08:27 | 39.29549 | 116.57322 | 8948 ft | 275 kts | 186° |
| 2026-05-07 08:27 | 39.27633 | 116.57387 | 8793 ft | 275 kts | 175° |
| 2026-05-07 08:28 | 39.25741 | 116.57734 | 8625 ft | 274 kts | 172° |
| 2026-05-07 08:28 | 39.23862 | 116.58156 | 8477 ft | 273 kts | 171° |
| 2026-05-07 08:28 | 39.21987 | 116.58564 | 8323 ft | 273 kts | 172° |
| 2026-05-07 08:28 | 39.20116 | 116.58933 | 8170 ft | 272 kts | 173° |
| 2026-05-07 08:29 | 39.18251 | 116.59267 | 8030 ft | 270 kts | 174° |
| 2026-05-07 08:29 | 39.16387 | 116.59576 | 7866 ft | 269 kts | 174° |
| 2026-05-07 08:29 | 39.14538 | 116.59682 | 7709 ft | 264 kts | 193° |
| 2026-05-07 08:29 | 39.12915 | 116.58732 | 7560 ft | 253 kts | 226° |
| 2026-05-07 08:30 | 39.11924 | 116.56951 | 7409 ft | 242 kts | 255° |
| 2026-05-07 08:30 | 39.11623 | 116.54860 | 7256 ft | 237 kts | 268° |
| 2026-05-07 08:30 | 39.11432 | 116.52761 | 7106 ft | 234 kts | 267° |
| 2026-05-07 08:30 | 39.11241 | 116.50715 | 6954 ft | 225 kts | 267° |
| 2026-05-07 08:31 | 39.11055 | 116.48746 | 6808 ft | 217 kts | 267° |
| 2026-05-07 08:31 | 39.11160 | 116.46872 | 6658 ft | 207 kts | 294° |
| 2026-05-07 08:31 | 39.11986 | 116.45415 | 6510 ft | 203 kts | 324° |
| 2026-05-07 08:31 | 39.13279 | 116.44755 | 6359 ft | 203 kts | 351° |
| 2026-05-07 08:32 | 39.14693 | 116.44535 | 6208 ft | 206 kts | 352° |
| 2026-05-07 08:32 | 39.16113 | 116.44323 | 6045 ft | 205 kts | 352° |
| 2026-05-07 08:32 | 39.17527 | 116.44105 | 5902 ft | 205 kts | 351° |
| 2026-05-07 08:32 | 39.18939 | 116.43884 | 5737 ft | 204 kts | 351° |
| 2026-05-07 08:33 | 39.20348 | 116.43663 | 5586 ft | 204 kts | 351° |
| 2026-05-07 08:33 | 39.21736 | 116.43446 | 5432 ft | 204 kts | 351° |
| 2026-05-07 08:33 | 39.23142 | 116.43226 | 5285 ft | 203 kts | 351° |
| 2026-05-07 08:33 | 39.24535 | 116.43008 | 5138 ft | 199 kts | 351° |
| 2026-05-07 08:34 | 39.25878 | 116.42798 | 4885 ft | 192 kts | 351° |
| 2026-05-07 08:34 | 39.27220 | 116.42587 | 4355 ft | 197 kts | 351° |
| 2026-05-07 08:34 | 39.28569 | 116.42375 | 3995 ft | 193 kts | 352° |
| 2026-05-07 08:34 | 39.29885 | 116.42170 | 3714 ft | 187 kts | 351° |
| 2026-05-07 08:35 | 39.31145 | 116.41973 | 3478 ft | 177 kts | 351° |
| 2026-05-07 08:35 | 39.32330 | 116.41787 | 3228 ft | 167 kts | 351° |
| 2026-05-07 08:35 | 39.33440 | 116.41613 | 3033 ft | 153 kts | 351° |
| 2026-05-07 08:35 | 39.34460 | 116.41452 | 2813 ft | 143 kts | 351° |
| 2026-05-07 08:36 | 39.35413 | 116.41302 | 2639 ft | 133 kts | 351° |
| 2026-05-07 08:36 | 39.36322 | 116.41159 | 2469 ft | 129 kts | 351° |
| 2026-05-07 08:36 | 39.37209 | 116.41019 | 2291 ft | 128 kts | 349° |
| 2026-05-07 08:36 | 39.38088 | 116.40881 | 2118 ft | 127 kts | 349° |
| 2026-05-07 08:37 | 39.38963 | 116.40743 | 1950 ft | 126 kts | 349° |
| 2026-05-07 08:37 | 39.39835 | 116.40606 | 1784 ft | 126 kts | 351° |
| 2026-05-07 08:37 | 39.40707 | 116.40468 | 1609 ft | 126 kts | 351° |
| 2026-05-07 08:37 | 39.41578 | 116.40331 | 1438 ft | 126 kts | 350° |
| 2026-05-07 08:38 | 39.42456 | 116.40193 | 1267 ft | 127 kts | 351° |
| 2026-05-07 08:38 | 39.43331 | 116.40055 | 1100 ft | 127 kts | 350° |
| 2026-05-07 08:38 | 39.44202 | 116.39918 | 931 ft | 125 kts | 350° |
| 2026-05-07 08:38 | 39.45072 | 116.39781 | 763 ft | 125 kts | 350° |
| 2026-05-07 08:39 | 39.45941 | 116.39638 | 578 ft | 127 kts | 349° |
| 2026-05-07 08:39 | 39.46816 | 116.39510 | 398 ft | 126 kts | 352° |
| 2026-05-07 08:39 | 39.47690 | 116.39370 | 238 ft | 127 kts | 351° |
| 2026-05-07 08:39 | 39.48565 | 116.39232 | 105 ft | 126 kts | 352° |
| 2026-05-07 08:40 | 39.49295 | 116.39116 | 97 ft | 81 kts | 353° |
| 2026-05-07 08:40 | 39.49711 | 116.39053 | 97 ft | 32 kts | 353° |
| 2026-05-07 08:40 | 39.49854 | 116.39030 | 98 ft | 20 kts | 352° |
| 2026-05-07 08:40 | 39.49994 | 116.39036 | 97 ft | 21 kts | 18° |
| 2026-05-07 08:41 | 39.50082 | 116.39080 | 92 ft | 7 kts | 21° |
| 2026-05-07 08:41 | 39.50137 | 116.39109 | 90 ft | 10 kts | 21° |
| 2026-05-07 08:41 | 39.50220 | 116.39149 | 90 ft | 15 kts | 19° |
| 2026-05-07 08:41 | 39.50334 | 116.39170 | 87 ft | 18 kts | 360° |
| 2026-05-07 08:42 | 39.50468 | 116.39155 | 90 ft | 21 kts | 351° |
| 2026-05-07 08:42 | 39.50618 | 116.39131 | 89 ft | 22 kts | 354° |
| 2026-05-07 08:42 | 39.50744 | 116.39119 | 89 ft | 14 kts | 9° |
| 2026-05-07 08:42 | 39.50821 | 116.39151 | 89 ft | 11 kts | 19° |
| 2026-05-07 08:43 | 39.50897 | 116.39184 | 87 ft | 12 kts | 19° |
| 2026-05-07 08:43 | 39.50977 | 116.39220 | 87 ft | 13 kts | 19° |
| 2026-05-07 08:43 | 39.51049 | 116.39289 | 88 ft | 13 kts | 69° |
| 2026-05-07 08:43 | 39.51064 | 116.39400 | 86 ft | 12 kts | 80° |
| 2026-05-07 08:44 | 39.51073 | 116.39497 | 89 ft | 10 kts | 85° |
| 2026-05-07 08:44 | 39.51080 | 116.39586 | 93 ft | 10 kts | 83° |
| 2026-05-07 08:44 | 39.51089 | 116.39683 | 95 ft | 11 kts | 83° |
| 2026-05-07 08:44 | 39.51099 | 116.39783 | 94 ft | 12 kts | 82° |
| 2026-05-07 08:45 | 39.51113 | 116.39910 | 91 ft | 16 kts | 82° |
| 2026-05-07 08:45 | 39.51124 | 116.40059 | 89 ft | 17 kts | 83° |
| 2026-05-07 08:45 | 39.51086 | 116.40171 | 89 ft | 15 kts | 168° |
| 2026-05-07 08:45 | 39.50993 | 116.40189 | 86 ft | 9 kts | 148° |
| 2026-05-07 08:46 | 39.51001 | 116.40261 | 88 ft | 10 kts | 70° |
| 2026-05-07 08:46 | 39.51012 | 116.40371 | 85 ft | 9 kts | 94° |
| 2026-05-07 08:46 | 39.51010 | 116.40390 | 85 ft | 0 kts | 95° |
| 2026-05-07 08:46 | 39.51013 | 116.40395 | 85 ft | 5 kts | 70° |
| 2026-05-07 08:47 | 39.51048 | 116.40430 | 87 ft | 6 kts | 25° |
| 2026-05-07 08:47 | 39.51084 | 116.40450 | 86 ft | 3 kts | 22° |
| 2026-05-07 08:47 | 39.51086 | 116.40451 | 86 ft | 0 kts | 22° |